Historyczne dane pomiarowe

Dodano dane terminowe – wersja testowa.

Dane z okresu 1951-2019

Wersja bazy: 1.34 [2019-03-16, lista zmian], aktualizacja planowana na 2019-04-15

Dane meteo z obszaru Polski uzyskane na podstawie danych udostępnionych przez Instytut Meteorologii i Gospodarki Wodnej – Państwowy Instytut Badawczy.

 

Wybierz Datę:    

       

TemperaturaWilgotnośćWiatrCiśnienieOpadyŚniegCzas trwania zjawisk
 Stacja t tx tn tng RH VA  wxwx mslp ppp RRR   cm mm wxwxwxwxwxwxwx
1983-08-14 12.1 16.4 10.3- 81.0- 5.7 1.0---- 0.3------------
1983-08-13 13.4 19.0 12.1- 79.8- 8.0 0.3---- 5.3------------
1983-08-12 17.7 25.4 13.2- 73.8- 3.0 0.3---- 0.0------------
1983-08-11 16.1 21.8 13.9- 85.5- 8.0 0.0---- 10.1------------
1983-08-10 16.8 24.0 11.1- 76.0- 5.3 0.7---- 1.8------------
1983-08-09 17.0 24.6 11.1- 80.0- 3.7 0.7---- 0.8------------
1983-08-08 17.2 21.8 11.9- 78.5- 5.3 0.7---- 5.4------------
1983-08-07 14.1 17.8 12.7- 86.0- 8.0 0.0---- 16.8------------
1983-08-06 14.7 19.8 10.7- 72.0- 7.3 0.3---- 0.8------------
1983-08-05 12.2 15.6 9.7- 78.0- 7.3 0.3---- 0.2------------
1983-08-04 12.4 21.4 11.1- 82.3- 8.0 0.7---- 4.1------------
1983-08-03 20.4 26.8 15.7- 75.0- 5.7 0.7---- 16.3------------
1983-08-02 19.6 31.0 12.1- 72.0- 4.0 0.0---- 11.3------------
1983-08-01 18.4 29.0 7.7- 65.8- 0.0 0.3---- 0.0------------
1983-07-31 16.8 23.8 9.8- 70.0- 0.0 0.3---- 0.0------------
1983-07-30 17.0 21.0 14.5- 76.8- 7.3 0.0---- 0.8------------
1983-07-29 18.1 24.8 13.1- 71.0- 1.7 0.3---- 1.0------------
1983-07-28 20.4 28.4 14.5- 71.3- 3.0 0.7---- 0.0------------
1983-07-27 19.9 29.8 11.5- 70.0- 0.0 0.3---- 0.0------------
1983-07-26 18.6 26.8 11.0- 63.3- 0.3 1.3---- 0.0------------
1983-07-25 15.5 20.0 12.5- 70.8- 2.7 1.3---- 0.0------------
1983-07-24 15.9 21.4 11.4- 76.3- 6.7 0.3---- 0.0------------
1983-07-23 15.3 21.8 12.2- 73.5- 6.7 1.0---- 0.0------------
1983-07-22 12.0 15.8 7.8- 71.0- 8.0 0.0---- 5.2------------
1983-07-21 10.7 17.0 8.1- 70.5- 6.0 2.0---- 0.3------------
1983-07-20 16.7 26.4 12.7- 79.5- 5.7 2.7---- 0.3------------
1983-07-19 19.2 29.8 13.0- 82.3- 4.0 0.0---- 1.4------------
1983-07-18 19.4 29.0 12.3- 75.0- 1.0 0.3---- 0.0------------
1983-07-17 19.3 26.4 12.7- 72.5- 1.3 0.0---- 0.0------------
1983-07-16 18.4 28.0 10.2- 71.3- 1.0 0.0---- 0.0------------
1983-07-15 18.0 23.8 14.7- 67.3- 0.0 0.7---- 0.0------------
1983-07-14 15.8 21.0 13.5- 80.5- 8.0 0.0---- 49.8------------
1983-07-13 16.2 23.0 13.5- 77.8- 7.3 0.7---- 62.6------------
1983-07-12 16.1 22.2 12.9- 81.3- 4.3 0.3---- 13.3------------
1983-07-11 16.8 25.0 12.7- 80.5- 7.3 0.0---- 12.3------------
1983-07-10 20.1 28.0 11.7- 57.3- 3.0 0.7---- 0.0------------
1983-07-09 17.4 26.8 7.9- 68.8- 1.3 0.3---- 0.0------------
1983-07-08 17.7 26.0 9.1- 59.3- 0.0 0.7---- 0.0------------
1983-07-07 19.8 28.4 11.2- 67.5- 0.0 0.0---- 0.0------------
1983-07-06 19.3 28.0 11.7- 68.5- 0.3 0.3---- 0.0------------
1983-07-05 18.2 26.6 9.2- 70.3- 2.7 0.7---- 0.0------------
1983-07-04 16.5 24.8 9.6- 71.3- 2.0 0.3---- 0.0------------
1983-07-03 18.2 22.5 14.3- 65.5- 1.3 1.0---- 0.0------------
1983-07-02 17.7 22.8 14.7- 76.3- 7.3 0.7---- 6.1------------
1983-07-01 17.3 25.4 8.7- 73.5- 3.3 0.3---- 0.0------------
1983-06-30 14.0 23.8 4.9- 74.0- 0.7 0.3---- 0.0------------
1983-06-29 14.4 18.8 11.5- 62.3- 2.7 1.0---- 0.0------------
1983-06-28 15.5 20.2 13.2- 85.3- 8.0 0.3---- 4.1------------
1983-06-27 18.3 26.8 12.0- 72.3- 5.7 0.3---- 2.3------------
1983-06-26 15.6 22.2 11.2- 84.0- 5.7 0.0---- 4.4------------
1983-06-25 18.4 28.0 9.3- 62.8- 0.0 0.0---- 1.2------------
1983-06-24 16.1 26.0 5.8- 66.8- 0.3 0.0---- 0.0------------
1983-06-23 13.1 22.0 4.2- 67.3- 0.0 0.3---- 0.0------------
1983-06-22 14.9 20.0 10.7- 61.3- 2.0 0.7---- 0.0------------
1983-06-21 17.9 24.8 12.5- 69.5- 3.3 0.3---- 0.0------------
1983-06-20 15.8 18.0 14.1- 85.5- 8.0 0.0---- 1.4------------
1983-06-19 13.7 16.7 10.7- 85.8- 8.0 0.7---- 44.6------------
1983-06-18 10.7 14.0 9.2- 84.5- 8.0 0.7---- 27.6------------
1983-06-17 10.4 13.2 9.3- 79.3- 8.0 1.0---- 16.8------------
1983-06-16 10.2 15.0 8.9- 87.5- 8.0 0.0---- 11.3------------
320.9 ms

 

Źródłem pochodzenia danych jest Instytut Meteorologii i Gospodarki Wodnej – Państwowy Instytut Badawczy. Dane Instytutu Meteorologii i Gospodarki Wodnej – Państwowego Instytutu Badawczego zostały przetworzone.

Dane źródłowe można odnaleźć na stronie https://dane.imgw.pl